sensor_id;sensor_type;location;lat;lon;timestamp;temperature;humidity
5870;DHT22;2961;47.702;9.410;2023-07-30T00:01:28;17.20;99.90
5870;DHT22;2961;47.702;9.410;2023-07-30T00:03:55;17.20;99.90
5870;DHT22;2961;47.702;9.410;2023-07-30T00:06:22;17.10;99.90
5870;DHT22;2961;47.702;9.410;2023-07-30T00:08:50;17.10;99.90
5870;DHT22;2961;47.702;9.410;2023-07-30T00:11:17;17.10;99.90
5870;DHT22;2961;47.702;9.410;2023-07-30T00:13:43;17.10;99.90
5870;DHT22;2961;47.702;9.410;2023-07-30T00:16:10;17.10;99.90
5870;DHT22;2961;47.702;9.410;2023-07-30T00:18:37;17.10;99.90
5870;DHT22;2961;47.702;9.410;2023-07-30T00:21:04;17.20;99.90
5870;DHT22;2961;47.702;9.410;2023-07-30T00:23:31;17.10;99.90
5870;DHT22;2961;47.702;9.410;2023-07-30T00:25:59;17.10;99.90
5870;DHT22;2961;47.702;9.410;2023-07-30T00:28:25;17.10;99.90
5870;DHT22;2961;47.702;9.410;2023-07-30T00:30:52;17.10;99.90
5870;DHT22;2961;47.702;9.410;2023-07-30T00:33:19;17.10;99.90
5870;DHT22;2961;47.702;9.410;2023-07-30T00:35:46;17.10;99.90
5870;DHT22;2961;47.702;9.410;2023-07-30T00:38:12;17.10;99.90
5870;DHT22;2961;47.702;9.410;2023-07-30T00:40:41;17.10;99.90
5870;DHT22;2961;47.702;9.410;2023-07-30T00:43:09;17.10;99.90
5870;DHT22;2961;47.702;9.410;2023-07-30T00:45:38;17.10;99.90
5870;DHT22;2961;47.702;9.410;2023-07-30T00:48:05;17.10;99.90
5870;DHT22;2961;47.702;9.410;2023-07-30T00:50:33;17.10;99.90
5870;DHT22;2961;47.702;9.410;2023-07-30T00:53:00;17.10;99.90
5870;DHT22;2961;47.702;9.410;2023-07-30T00:55:27;17.10;99.90
5870;DHT22;2961;47.702;9.410;2023-07-30T00:57:54;17.10;99.90
5870;DHT22;2961;47.702;9.410;2023-07-30T01:00:22;17.10;99.90
5870;DHT22;2961;47.702;9.410;2023-07-30T01:02:50;17.00;99.90
5870;DHT22;2961;47.702;9.410;2023-07-30T01:05:17;17.00;99.90
5870;DHT22;2961;47.702;9.410;2023-07-30T01:07:45;17.00;99.90
5870;DHT22;2961;47.702;9.410;2023-07-30T01:10:12;17.00;99.90
5870;DHT22;2961;47.702;9.410;2023-07-30T01:12:39;17.10;99.90
5870;DHT22;2961;47.702;9.410;2023-07-30T01:15:08;17.10;99.90
5870;DHT22;2961;47.702;9.410;2023-07-30T01:17:37;17.10;99.90
5870;DHT22;2961;47.702;9.410;2023-07-30T01:20:05;17.20;99.90
5870;DHT22;2961;47.702;9.410;2023-07-30T01:22:33;17.20;99.90
5870;DHT22;2961;47.702;9.410;2023-07-30T01:25:00;17.20;99.90
5870;DHT22;2961;47.702;9.410;2023-07-30T01:27:29;17.20;99.90
5870;DHT22;2961;47.702;9.410;2023-07-30T01:30:03;17.10;99.90
5870;DHT22;2961;47.702;9.410;2023-07-30T01:32:32;17.10;99.90
5870;DHT22;2961;47.702;9.410;2023-07-30T01:35:01;17.10;99.90
5870;DHT22;2961;47.702;9.410;2023-07-30T01:37:29;17.10;99.90
5870;DHT22;2961;47.702;9.410;2023-07-30T01:39:58;17.10;99.90
5870;DHT22;2961;47.702;9.410;2023-07-30T01:42:28;17.00;99.90
5870;DHT22;2961;47.702;9.410;2023-07-30T01:44:55;17.00;99.90
5870;DHT22;2961;47.702;9.410;2023-07-30T01:47:22;17.00;99.90
5870;DHT22;2961;47.702;9.410;2023-07-30T01:49:48;16.90;99.90
5870;DHT22;2961;47.702;9.410;2023-07-30T01:52:15;16.90;99.90
5870;DHT22;2961;47.702;9.410;2023-07-30T01:54:42;16.90;99.90
5870;DHT22;2961;47.702;9.410;2023-07-30T01:57:10;16.90;99.90
5870;DHT22;2961;47.702;9.410;2023-07-30T01:59:38;16.80;99.90
5870;DHT22;2961;47.702;9.410;2023-07-30T02:02:05;16.70;99.90
5870;DHT22;2961;47.702;9.410;2023-07-30T02:04:32;16.60;99.90
5870;DHT22;2961;47.702;9.410;2023-07-30T02:06:59;16.60;99.90
5870;DHT22;2961;47.702;9.410;2023-07-30T02:09:26;16.60;99.90
5870;DHT22;2961;47.702;9.410;2023-07-30T02:11:52;16.50;99.90
5870;DHT22;2961;47.702;9.410;2023-07-30T02:14:21;16.40;99.90
5870;DHT22;2961;47.702;9.410;2023-07-30T02:16:47;16.30;99.90
5870;DHT22;2961;47.702;9.410;2023-07-30T02:19:14;16.30;99.90
5870;DHT22;2961;47.702;9.410;2023-07-30T02:21:41;16.20;99.90
5870;DHT22;2961;47.702;9.410;2023-07-30T02:24:08;16.20;99.90
5870;DHT22;2961;47.702;9.410;2023-07-30T02:26:37;16.30;99.90
5870;DHT22;2961;47.702;9.410;2023-07-30T02:29:04;16.30;99.90
5870;DHT22;2961;47.702;9.410;2023-07-30T02:31:32;16.30;99.90
5870;DHT22;2961;47.702;9.410;2023-07-30T02:33:59;16.30;99.90
5870;DHT22;2961;47.702;9.410;2023-07-30T02:36:26;16.30;99.90
5870;DHT22;2961;47.702;9.410;2023-07-30T02:38:53;16.30;99.90
5870;DHT22;2961;47.702;9.410;2023-07-30T02:41:19;16.30;99.90
5870;DHT22;2961;47.702;9.410;2023-07-30T02:43:46;16.30;99.90
5870;DHT22;2961;47.702;9.410;2023-07-30T02:46:13;16.20;99.90
5870;DHT22;2961;47.702;9.410;2023-07-30T02:48:41;16.20;99.90
5870;DHT22;2961;47.702;9.410;2023-07-30T02:51:08;16.10;99.90
5870;DHT22;2961;47.702;9.410;2023-07-30T02:53:34;15.90;99.90
5870;DHT22;2961;47.702;9.410;2023-07-30T02:56:01;15.90;99.90
5870;DHT22;2961;47.702;9.410;2023-07-30T02:58:28;15.80;99.90
5870;DHT22;2961;47.702;9.410;2023-07-30T03:00:55;15.90;99.90
5870;DHT22;2961;47.702;9.410;2023-07-30T03:03:22;15.90;99.90
5870;DHT22;2961;47.702;9.410;2023-07-30T03:05:50;15.90;99.90
5870;DHT22;2961;47.702;9.410;2023-07-30T03:08:16;15.80;99.90
5870;DHT22;2961;47.702;9.410;2023-07-30T03:10:43;15.80;99.90
5870;DHT22;2961;47.702;9.410;2023-07-30T03:13:10;15.70;99.90
5870;DHT22;2961;47.702;9.410;2023-07-30T03:15:37;15.70;99.90
5870;DHT22;2961;47.702;9.410;2023-07-30T03:18:03;15.70;99.90
5870;DHT22;2961;47.702;9.410;2023-07-30T03:20:30;15.70;99.90
5870;DHT22;2961;47.702;9.410;2023-07-30T03:22:58;15.60;99.90
5870;DHT22;2961;47.702;9.410;2023-07-30T03:25:25;15.60;99.90
5870;DHT22;2961;47.702;9.410;2023-07-30T03:27:52;15.60;99.90
5870;DHT22;2961;47.702;9.410;2023-07-30T03:30:18;15.60;99.90
5870;DHT22;2961;47.702;9.410;2023-07-30T03:32:45;15.50;99.90
5870;DHT22;2961;47.702;9.410;2023-07-30T03:35:12;15.40;99.90
5870;DHT22;2961;47.702;9.410;2023-07-30T03:37:39;15.40;99.90
5870;DHT22;2961;47.702;9.410;2023-07-30T03:40:08;15.40;99.90
5870;DHT22;2961;47.702;9.410;2023-07-30T03:42:35;15.40;99.90
5870;DHT22;2961;47.702;9.410;2023-07-30T03:45:03;15.40;99.90
5870;DHT22;2961;47.702;9.410;2023-07-30T03:47:29;15.30;99.90
5870;DHT22;2961;47.702;9.410;2023-07-30T03:49:56;15.30;99.90
5870;DHT22;2961;47.702;9.410;2023-07-30T03:52:23;15.30;99.90
5870;DHT22;2961;47.702;9.410;2023-07-30T03:54:50;15.30;99.90
5870;DHT22;2961;47.702;9.410;2023-07-30T03:57:18;15.20;99.90
5870;DHT22;2961;47.702;9.410;2023-07-30T03:59:44;15.10;99.90
5870;DHT22;2961;47.702;9.410;2023-07-30T04:02:11;15.10;99.90
5870;DHT22;2961;47.702;9.410;2023-07-30T04:04:41;15.00;99.90
5870;DHT22;2961;47.702;9.410;2023-07-30T04:07:09;15.00;99.90
5870;DHT22;2961;47.702;9.410;2023-07-30T04:09:35;14.90;99.90
5870;DHT22;2961;47.702;9.410;2023-07-30T04:12:03;14.90;99.90
5870;DHT22;2961;47.702;9.410;2023-07-30T04:14:31;14.90;99.90
5870;DHT22;2961;47.702;9.410;2023-07-30T04:16:58;14.90;99.90
5870;DHT22;2961;47.702;9.410;2023-07-30T04:19:25;15.00;99.90
5870;DHT22;2961;47.702;9.410;2023-07-30T04:21:51;15.10;99.90
5870;DHT22;2961;47.702;9.410;2023-07-30T04:24:18;15.00;99.90
5870;DHT22;2961;47.702;9.410;2023-07-30T04:26:45;15.00;99.90
5870;DHT22;2961;47.702;9.410;2023-07-30T04:29:11;15.00;99.90
5870;DHT22;2961;47.702;9.410;2023-07-30T04:31:40;15.00;99.90
5870;DHT22;2961;47.702;9.410;2023-07-30T04:34:07;15.10;99.90
5870;DHT22;2961;47.702;9.410;2023-07-30T04:36:34;15.10;99.90
5870;DHT22;2961;47.702;9.410;2023-07-30T04:39:01;15.20;99.90
5870;DHT22;2961;47.702;9.410;2023-07-30T04:41:27;15.30;99.90
5870;DHT22;2961;47.702;9.410;2023-07-30T04:43:54;15.50;99.90
5870;DHT22;2961;47.702;9.410;2023-07-30T04:46:21;15.60;99.90
5870;DHT22;2961;47.702;9.410;2023-07-30T04:48:49;15.70;99.90
5870;DHT22;2961;47.702;9.410;2023-07-30T04:51:16;15.90;99.90
5870;DHT22;2961;47.702;9.410;2023-07-30T04:53:43;16.00;99.90
5870;DHT22;2961;47.702;9.410;2023-07-30T04:56:09;16.10;99.90
5870;DHT22;2961;47.702;9.410;2023-07-30T04:58:36;16.20;99.90
5870;DHT22;2961;47.702;9.410;2023-07-30T05:01:03;16.30;99.90
5870;DHT22;2961;47.702;9.410;2023-07-30T05:03:30;16.50;99.90
5870;DHT22;2961;47.702;9.410;2023-07-30T05:05:58;16.50;99.90
5870;DHT22;2961;47.702;9.410;2023-07-30T05:08:24;16.60;99.90
5870;DHT22;2961;47.702;9.410;2023-07-30T05:10:51;16.70;99.90
5870;DHT22;2961;47.702;9.410;2023-07-30T05:13:18;16.80;99.90
5870;DHT22;2961;47.702;9.410;2023-07-30T05:15:45;17.00;99.90
5870;DHT22;2961;47.702;9.410;2023-07-30T05:18:11;17.60;99.90
5870;DHT22;2961;47.702;9.410;2023-07-30T05:20:39;18.20;99.90
5870;DHT22;2961;47.702;9.410;2023-07-30T05:23:07;18.70;99.90
5870;DHT22;2961;47.702;9.410;2023-07-30T05:25:34;19.10;99.90
5870;DHT22;2961;47.702;9.410;2023-07-30T05:28:01;20.20;99.90
5870;DHT22;2961;47.702;9.410;2023-07-30T05:30:27;21.40;99.90
5870;DHT22;2961;47.702;9.410;2023-07-30T05:32:55;22.00;99.90
5870;DHT22;2961;47.702;9.410;2023-07-30T05:35:21;22.30;99.90
5870;DHT22;2961;47.702;9.410;2023-07-30T05:37:48;23.20;99.90
5870;DHT22;2961;47.702;9.410;2023-07-30T05:40:16;24.50;99.90
5870;DHT22;2961;47.702;9.410;2023-07-30T05:42:43;25.70;99.90
5870;DHT22;2961;47.702;9.410;2023-07-30T05:45:10;26.70;99.90
5870;DHT22;2961;47.702;9.410;2023-07-30T05:47:37;27.60;99.90
5870;DHT22;2961;47.702;9.410;2023-07-30T05:50:05;28.40;99.90
5870;DHT22;2961;47.702;9.410;2023-07-30T05:52:31;29.00;99.90
5870;DHT22;2961;47.702;9.410;2023-07-30T05:54:58;29.00;99.90
5870;DHT22;2961;47.702;9.410;2023-07-30T05:57:27;28.40;99.90
5870;DHT22;2961;47.702;9.410;2023-07-30T05:59:53;27.40;99.90
5870;DHT22;2961;47.702;9.410;2023-07-30T06:02:20;26.50;99.90
5870;DHT22;2961;47.702;9.410;2023-07-30T06:04:47;25.40;99.90
5870;DHT22;2961;47.702;9.410;2023-07-30T06:07:14;25.10;99.90
5870;DHT22;2961;47.702;9.410;2023-07-30T06:09:41;25.50;99.90
5870;DHT22;2961;47.702;9.410;2023-07-30T06:12:08;26.40;99.90
5870;DHT22;2961;47.702;9.410;2023-07-30T06:14:36;26.80;99.90
5870;DHT22;2961;47.702;9.410;2023-07-30T06:17:03;26.30;99.90
5870;DHT22;2961;47.702;9.410;2023-07-30T06:19:30;25.30;99.90
5870;DHT22;2961;47.702;9.410;2023-07-30T06:21:57;24.20;99.90
5870;DHT22;2961;47.702;9.410;2023-07-30T06:24:23;23.60;99.90
5870;DHT22;2961;47.702;9.410;2023-07-30T06:26:50;23.20;99.90
5870;DHT22;2961;47.702;9.410;2023-07-30T06:29:17;23.20;99.90
5870;DHT22;2961;47.702;9.410;2023-07-30T06:31:45;23.30;99.90
5870;DHT22;2961;47.702;9.410;2023-07-30T06:34:12;23.30;99.90
5870;DHT22;2961;47.702;9.410;2023-07-30T06:36:40;23.10;99.90
5870;DHT22;2961;47.702;9.410;2023-07-30T06:39:07;22.90;99.90
5870;DHT22;2961;47.702;9.410;2023-07-30T06:41:34;22.70;99.90
5870;DHT22;2961;47.702;9.410;2023-07-30T06:44:00;22.30;99.90
5870;DHT22;2961;47.702;9.410;2023-07-30T06:46:27;22.20;99.90
5870;DHT22;2961;47.702;9.410;2023-07-30T06:48:55;23.20;99.90
5870;DHT22;2961;47.702;9.410;2023-07-30T06:51:24;24.90;99.90
5870;DHT22;2961;47.702;9.410;2023-07-30T06:53:51;26.00;99.90
5870;DHT22;2961;47.702;9.410;2023-07-30T06:56:18;26.90;99.90
5870;DHT22;2961;47.702;9.410;2023-07-30T06:58:44;27.20;99.90
5870;DHT22;2961;47.702;9.410;2023-07-30T07:01:11;27.00;99.90
5870;DHT22;2961;47.702;9.410;2023-07-30T07:03:38;26.80;99.90
5870;DHT22;2961;47.702;9.410;2023-07-30T07:06:06;26.30;99.90
5870;DHT22;2961;47.702;9.410;2023-07-30T07:08:33;25.90;99.90
5870;DHT22;2961;47.702;9.410;2023-07-30T07:10:59;26.10;99.90
5870;DHT22;2961;47.702;9.410;2023-07-30T07:13:26;26.70;99.90
5870;DHT22;2961;47.702;9.410;2023-07-30T07:15:53;26.80;99.90
5870;DHT22;2961;47.702;9.410;2023-07-30T07:18:20;27.10;99.90
5870;DHT22;2961;47.702;9.410;2023-07-30T07:20:46;27.60;99.90
5870;DHT22;2961;47.702;9.410;2023-07-30T07:23:15;27.50;99.90
5870;DHT22;2961;47.702;9.410;2023-07-30T07:25:41;28.10;99.90
5870;DHT22;2961;47.702;9.410;2023-07-30T07:28:10;28.30;99.90
5870;DHT22;2961;47.702;9.410;2023-07-30T07:30:36;27.90;99.90
5870;DHT22;2961;47.702;9.410;2023-07-30T07:33:03;28.20;99.90
5870;DHT22;2961;47.702;9.410;2023-07-30T07:35:31;27.60;99.90
5870;DHT22;2961;47.702;9.410;2023-07-30T07:37:58;27.30;99.90
5870;DHT22;2961;47.702;9.410;2023-07-30T07:40:26;27.20;99.90
5870;DHT22;2961;47.702;9.410;2023-07-30T07:42:52;27.60;99.90
5870;DHT22;2961;47.702;9.410;2023-07-30T07:45:22;28.30;99.90
5870;DHT22;2961;47.702;9.410;2023-07-30T07:47:49;28.50;99.90
5870;DHT22;2961;47.702;9.410;2023-07-30T07:50:15;28.40;99.40
5870;DHT22;2961;47.702;9.410;2023-07-30T07:52:42;28.20;99.00
5870;DHT22;2961;47.702;9.410;2023-07-30T07:55:09;27.50;99.20
5870;DHT22;2961;47.702;9.410;2023-07-30T07:57:37;26.50;99.90
5870;DHT22;2961;47.702;9.410;2023-07-30T08:00:05;25.50;99.90
5870;DHT22;2961;47.702;9.410;2023-07-30T08:02:32;24.70;99.90
5870;DHT22;2961;47.702;9.410;2023-07-30T08:04:59;24.50;99.90
5870;DHT22;2961;47.702;9.410;2023-07-30T08:07:25;25.20;99.90
5870;DHT22;2961;47.702;9.410;2023-07-30T08:09:52;25.80;99.90
5870;DHT22;2961;47.702;9.410;2023-07-30T08:12:20;26.20;99.90
5870;DHT22;2961;47.702;9.410;2023-07-30T08:14:48;26.40;99.90
5870;DHT22;2961;47.702;9.410;2023-07-30T08:17:15;27.20;99.90
5870;DHT22;2961;47.702;9.410;2023-07-30T08:19:41;27.30;99.90
5870;DHT22;2961;47.702;9.410;2023-07-30T08:22:08;26.20;99.90
5870;DHT22;2961;47.702;9.410;2023-07-30T08:24:35;25.70;99.90
5870;DHT22;2961;47.702;9.410;2023-07-30T08:27:02;25.40;99.90
5870;DHT22;2961;47.702;9.410;2023-07-30T08:29:29;25.10;99.90
5870;DHT22;2961;47.702;9.410;2023-07-30T08:31:57;25.10;99.90
5870;DHT22;2961;47.702;9.410;2023-07-30T08:34:23;25.20;99.90
5870;DHT22;2961;47.702;9.410;2023-07-30T08:36:50;25.90;99.90
5870;DHT22;2961;47.702;9.410;2023-07-30T08:39:17;26.70;99.90
5870;DHT22;2961;47.702;9.410;2023-07-30T08:41:45;26.80;99.90
5870;DHT22;2961;47.702;9.410;2023-07-30T08:44:12;26.50;99.90
5870;DHT22;2961;47.702;9.410;2023-07-30T08:46:39;25.80;99.90
5870;DHT22;2961;47.702;9.410;2023-07-30T08:49:07;25.10;99.90
5870;DHT22;2961;47.702;9.410;2023-07-30T08:51:36;24.60;99.90
5870;DHT22;2961;47.702;9.410;2023-07-30T08:54:04;24.20;99.90
5870;DHT22;2961;47.702;9.410;2023-07-30T08:56:32;23.80;99.90
5870;DHT22;2961;47.702;9.410;2023-07-30T08:59:00;23.50;99.90
5870;DHT22;2961;47.702;9.410;2023-07-30T09:01:30;23.40;99.90
5870;DHT22;2961;47.702;9.410;2023-07-30T09:03:58;23.40;99.90
5870;DHT22;2961;47.702;9.410;2023-07-30T09:06:27;23.40;99.90
5870;DHT22;2961;47.702;9.410;2023-07-30T09:08:54;23.60;99.90
5870;DHT22;2961;47.702;9.410;2023-07-30T09:11:25;23.90;99.90
5870;DHT22;2961;47.702;9.410;2023-07-30T09:13:54;24.00;99.90
5870;DHT22;2961;47.702;9.410;2023-07-30T09:16:24;24.40;99.90
5870;DHT22;2961;47.702;9.410;2023-07-30T09:18:51;24.70;99.90
5870;DHT22;2961;47.702;9.410;2023-07-30T09:21:19;24.80;99.90
5870;DHT22;2961;47.702;9.410;2023-07-30T09:23:48;25.10;99.90
5870;DHT22;2961;47.702;9.410;2023-07-30T09:26:15;25.60;99.90
5870;DHT22;2961;47.702;9.410;2023-07-30T09:28:41;26.30;99.90
5870;DHT22;2961;47.702;9.410;2023-07-30T09:31:09;26.60;99.90
5870;DHT22;2961;47.702;9.410;2023-07-30T09:33:40;26.90;99.90
5870;DHT22;2961;47.702;9.410;2023-07-30T09:36:08;27.00;98.40
5870;DHT22;2961;47.702;9.410;2023-07-30T09:38:38;27.00;98.30
5870;DHT22;2961;47.702;9.410;2023-07-30T09:41:07;27.30;98.30
5870;DHT22;2961;47.702;9.410;2023-07-30T09:43:35;26.90;98.90
5870;DHT22;2961;47.702;9.410;2023-07-30T09:46:03;26.10;99.10
5870;DHT22;2961;47.702;9.410;2023-07-30T09:48:31;25.90;99.80
5870;DHT22;2961;47.702;9.410;2023-07-30T09:50:59;25.90;99.00
5870;DHT22;2961;47.702;9.410;2023-07-30T09:53:29;26.10;99.90
5870;DHT22;2961;47.702;9.410;2023-07-30T09:56:00;26.60;99.20
5870;DHT22;2961;47.702;9.410;2023-07-30T09:58:28;26.60;99.10
5870;DHT22;2961;47.702;9.410;2023-07-30T10:00:56;26.70;96.90
5870;DHT22;2961;47.702;9.410;2023-07-30T10:03:24;26.60;98.50
5870;DHT22;2961;47.702;9.410;2023-07-30T10:05:54;26.70;97.60
5870;DHT22;2961;47.702;9.410;2023-07-30T10:08:24;26.20;97.20
5870;DHT22;2961;47.702;9.410;2023-07-30T10:10:53;25.80;97.40
5870;DHT22;2961;47.702;9.410;2023-07-30T10:13:21;25.40;98.50
5870;DHT22;2961;47.702;9.410;2023-07-30T10:15:50;25.10;99.40
5870;DHT22;2961;47.702;9.410;2023-07-30T10:18:18;24.70;99.90
5870;DHT22;2961;47.702;9.410;2023-07-30T10:20:52;24.30;99.90
5870;DHT22;2961;47.702;9.410;2023-07-30T10:23:19;24.10;99.90
5870;DHT22;2961;47.702;9.410;2023-07-30T10:25:49;24.10;99.90
5870;DHT22;2961;47.702;9.410;2023-07-30T10:28:27;24.00;99.90
5870;DHT22;2961;47.702;9.410;2023-07-30T10:30:59;24.10;99.90
5870;DHT22;2961;47.702;9.410;2023-07-30T10:33:45;24.00;99.90
5870;DHT22;2961;47.702;9.410;2023-07-30T10:36:13;24.00;99.90
5870;DHT22;2961;47.702;9.410;2023-07-30T10:38:39;24.30;99.90
5870;DHT22;2961;47.702;9.410;2023-07-30T10:41:09;24.40;99.90
5870;DHT22;2961;47.702;9.410;2023-07-30T10:43:39;24.50;99.90
5870;DHT22;2961;47.702;9.410;2023-07-30T10:46:08;24.70;99.90
5870;DHT22;2961;47.702;9.410;2023-07-30T10:48:36;24.90;99.70
5870;DHT22;2961;47.702;9.410;2023-07-30T10:51:05;25.00;99.90
5870;DHT22;2961;47.702;9.410;2023-07-30T10:53:32;25.20;99.90
5870;DHT22;2961;47.702;9.410;2023-07-30T10:56:03;25.20;99.70
5870;DHT22;2961;47.702;9.410;2023-07-30T10:58:31;25.00;99.90
5870;DHT22;2961;47.702;9.410;2023-07-30T11:00:58;24.80;99.90
5870;DHT22;2961;47.702;9.410;2023-07-30T11:03:27;24.60;99.90
5870;DHT22;2961;47.702;9.410;2023-07-30T11:05:54;24.50;99.90
5870;DHT22;2961;47.702;9.410;2023-07-30T11:08:30;24.70;99.90
5870;DHT22;2961;47.702;9.410;2023-07-30T11:10:58;24.70;99.90
5870;DHT22;2961;47.702;9.410;2023-07-30T11:13:25;24.80;99.90
5870;DHT22;2961;47.702;9.410;2023-07-30T11:15:52;24.80;99.90
5870;DHT22;2961;47.702;9.410;2023-07-30T11:18:18;24.90;99.90
5870;DHT22;2961;47.702;9.410;2023-07-30T11:20:46;25.10;99.90
5870;DHT22;2961;47.702;9.410;2023-07-30T11:23:20;25.20;99.90
5870;DHT22;2961;47.702;9.410;2023-07-30T11:25:47;25.10;98.90
5870;DHT22;2961;47.702;9.410;2023-07-30T11:28:26;25.20;97.90
5870;DHT22;2961;47.702;9.410;2023-07-30T11:30:53;25.20;98.50
5870;DHT22;2961;47.702;9.410;2023-07-30T11:33:21;25.30;99.70
5870;DHT22;2961;47.702;9.410;2023-07-30T11:35:49;25.30;98.60
5870;DHT22;2961;47.702;9.410;2023-07-30T11:38:16;25.30;98.60
5870;DHT22;2961;47.702;9.410;2023-07-30T11:40:45;25.10;95.50
5870;DHT22;2961;47.702;9.410;2023-07-30T11:43:12;24.70;96.50
5870;DHT22;2961;47.702;9.410;2023-07-30T11:45:39;24.50;96.20
5870;DHT22;2961;47.702;9.410;2023-07-30T11:48:07;24.60;96.60
5870;DHT22;2961;47.702;9.410;2023-07-30T11:50:45;24.70;97.60
5870;DHT22;2961;47.702;9.410;2023-07-30T11:53:13;25.00;97.50
5870;DHT22;2961;47.702;9.410;2023-07-30T11:55:41;25.10;95.40
5870;DHT22;2961;47.702;9.410;2023-07-30T11:58:12;25.10;93.60
5870;DHT22;2961;47.702;9.410;2023-07-30T12:00:40;25.00;92.50
5870;DHT22;2961;47.702;9.410;2023-07-30T12:03:11;24.80;90.80
5870;DHT22;2961;47.702;9.410;2023-07-30T12:05:38;24.70;92.00
5870;DHT22;2961;47.702;9.410;2023-07-30T12:08:12;24.70;92.00
5870;DHT22;2961;47.702;9.410;2023-07-30T12:10:44;24.70;91.60
5870;DHT22;2961;47.702;9.410;2023-07-30T12:13:12;24.80;91.10
5870;DHT22;2961;47.702;9.410;2023-07-30T12:15:39;24.90;92.50
5870;DHT22;2961;47.702;9.410;2023-07-30T12:18:08;24.90;87.90
5870;DHT22;2961;47.702;9.410;2023-07-30T12:20:35;24.90;90.10
5870;DHT22;2961;47.702;9.410;2023-07-30T12:23:02;24.90;89.50
5870;DHT22;2961;47.702;9.410;2023-07-30T12:25:29;24.90;87.70
5870;DHT22;2961;47.702;9.410;2023-07-30T12:27:57;24.80;88.80
5870;DHT22;2961;47.702;9.410;2023-07-30T12:30:24;24.80;87.80
5870;DHT22;2961;47.702;9.410;2023-07-30T12:32:51;24.90;86.60
5870;DHT22;2961;47.702;9.410;2023-07-30T12:35:18;25.40;86.70
5870;DHT22;2961;47.702;9.410;2023-07-30T12:38:14;25.60;78.70
5870;DHT22;2961;47.702;9.410;2023-07-30T12:40:41;25.70;80.90
5870;DHT22;2961;47.702;9.410;2023-07-30T12:43:08;26.10;82.40
5870;DHT22;2961;47.702;9.410;2023-07-30T12:45:35;26.10;79.60
5870;DHT22;2961;47.702;9.410;2023-07-30T12:48:02;25.90;80.30
5870;DHT22;2961;47.702;9.410;2023-07-30T12:50:28;25.70;79.50
5870;DHT22;2961;47.702;9.410;2023-07-30T12:52:55;25.20;81.50
5870;DHT22;2961;47.702;9.410;2023-07-30T12:55:23;25.10;86.40
5870;DHT22;2961;47.702;9.410;2023-07-30T12:57:50;25.10;86.80
5870;DHT22;2961;47.702;9.410;2023-07-30T13:00:17;25.20;90.30
5870;DHT22;2961;47.702;9.410;2023-07-30T13:02:44;25.30;83.80
5870;DHT22;2961;47.702;9.410;2023-07-30T13:05:10;25.30;80.70
5870;DHT22;2961;47.702;9.410;2023-07-30T13:07:39;25.10;76.30
5870;DHT22;2961;47.702;9.410;2023-07-30T13:10:07;25.00;77.70
5870;DHT22;2961;47.702;9.410;2023-07-30T13:12:35;25.10;78.20
5870;DHT22;2961;47.702;9.410;2023-07-30T13:15:03;24.90;78.20
5870;DHT22;2961;47.702;9.410;2023-07-30T13:17:29;24.90;81.00
5870;DHT22;2961;47.702;9.410;2023-07-30T13:19:57;24.90;79.70
5870;DHT22;2961;47.702;9.410;2023-07-30T13:22:24;24.90;77.80
5870;DHT22;2961;47.702;9.410;2023-07-30T13:24:50;24.90;80.90
5870;DHT22;2961;47.702;9.410;2023-07-30T13:27:18;24.90;79.00
5870;DHT22;2961;47.702;9.410;2023-07-30T13:29:46;24.90;81.00
5870;DHT22;2961;47.702;9.410;2023-07-30T13:32:14;24.90;82.80
5870;DHT22;2961;47.702;9.410;2023-07-30T13:34:41;25.00;82.50
5870;DHT22;2961;47.702;9.410;2023-07-30T13:37:07;25.10;86.00
5870;DHT22;2961;47.702;9.410;2023-07-30T13:39:34;25.10;82.40
5870;DHT22;2961;47.702;9.410;2023-07-30T13:42:01;25.30;80.90
5870;DHT22;2961;47.702;9.410;2023-07-30T13:44:28;25.30;80.80
5870;DHT22;2961;47.702;9.410;2023-07-30T13:46:56;25.30;81.70
5870;DHT22;2961;47.702;9.410;2023-07-30T13:49:23;25.40;77.60
5870;DHT22;2961;47.702;9.410;2023-07-30T13:51:49;25.30;78.60
5870;DHT22;2961;47.702;9.410;2023-07-30T13:54:16;25.40;76.80
5870;DHT22;2961;47.702;9.410;2023-07-30T13:56:43;25.30;75.90
5870;DHT22;2961;47.702;9.410;2023-07-30T13:59:10;25.20;79.90
5870;DHT22;2961;47.702;9.410;2023-07-30T14:01:36;25.10;78.00
5870;DHT22;2961;47.702;9.410;2023-07-30T14:04:05;25.10;78.40
5870;DHT22;2961;47.702;9.410;2023-07-30T14:06:31;25.10;79.80
5870;DHT22;2961;47.702;9.410;2023-07-30T14:08:58;25.10;80.40
5870;DHT22;2961;47.702;9.410;2023-07-30T14:11:26;25.10;77.70
5870;DHT22;2961;47.702;9.410;2023-07-30T14:13:53;25.20;80.10
5870;DHT22;2961;47.702;9.410;2023-07-30T14:16:19;25.20;77.00
5870;DHT22;2961;47.702;9.410;2023-07-30T14:18:46;25.10;77.90
5870;DHT22;2961;47.702;9.410;2023-07-30T14:21:14;25.20;77.20
5870;DHT22;2961;47.702;9.410;2023-07-30T14:23:41;25.30;79.30
5870;DHT22;2961;47.702;9.410;2023-07-30T14:26:08;25.40;79.40
5870;DHT22;2961;47.702;9.410;2023-07-30T14:28:35;25.40;76.20
5870;DHT22;2961;47.702;9.410;2023-07-30T14:31:01;25.30;74.80
5870;DHT22;2961;47.702;9.410;2023-07-30T14:33:28;25.30;71.50
5870;DHT22;2961;47.702;9.410;2023-07-30T14:35:55;25.30;73.20
5870;DHT22;2961;47.702;9.410;2023-07-30T14:38:23;25.30;75.20
5870;DHT22;2961;47.702;9.410;2023-07-30T14:40:50;25.30;74.90
5870;DHT22;2961;47.702;9.410;2023-07-30T14:43:17;25.30;74.30
5870;DHT22;2961;47.702;9.410;2023-07-30T14:45:43;25.30;72.90
5870;DHT22;2961;47.702;9.410;2023-07-30T14:48:10;25.30;74.80
5870;DHT22;2961;47.702;9.410;2023-07-30T14:50:37;25.20;73.60
5870;DHT22;2961;47.702;9.410;2023-07-30T14:53:04;25.20;74.80
5870;DHT22;2961;47.702;9.410;2023-07-30T14:55:32;25.40;74.80
5870;DHT22;2961;47.702;9.410;2023-07-30T14:57:59;25.30;71.70
5870;DHT22;2961;47.702;9.410;2023-07-30T15:00:26;25.30;70.90
5870;DHT22;2961;47.702;9.410;2023-07-30T15:02:53;25.20;72.30
5870;DHT22;2961;47.702;9.410;2023-07-30T15:05:20;25.20;72.90
5870;DHT22;2961;47.702;9.410;2023-07-30T15:07:46;25.30;73.10
5870;DHT22;2961;47.702;9.410;2023-07-30T15:10:13;25.10;72.40
5870;DHT22;2961;47.702;9.410;2023-07-30T15:12:43;25.10;73.60
5870;DHT22;2961;47.702;9.410;2023-07-30T15:15:10;25.10;72.90
5870;DHT22;2961;47.702;9.410;2023-07-30T15:17:37;25.00;76.30
5870;DHT22;2961;47.702;9.410;2023-07-30T15:20:04;25.00;76.30
5870;DHT22;2961;47.702;9.410;2023-07-30T15:22:31;25.10;74.00
5870;DHT22;2961;47.702;9.410;2023-07-30T15:24:58;25.10;75.20
5870;DHT22;2961;47.702;9.410;2023-07-30T15:27:25;25.10;76.70
5870;DHT22;2961;47.702;9.410;2023-07-30T15:29:53;25.20;75.80
5870;DHT22;2961;47.702;9.410;2023-07-30T15:32:20;25.20;74.90
5870;DHT22;2961;47.702;9.410;2023-07-30T15:34:47;25.20;77.40
5870;DHT22;2961;47.702;9.410;2023-07-30T15:37:14;25.20;77.30
5870;DHT22;2961;47.702;9.410;2023-07-30T15:39:41;25.20;74.90
5870;DHT22;2961;47.702;9.410;2023-07-30T15:42:08;25.10;73.20
5870;DHT22;2961;47.702;9.410;2023-07-30T15:44:35;25.10;76.10
5870;DHT22;2961;47.702;9.410;2023-07-30T15:47:03;25.10;74.30
5870;DHT22;2961;47.702;9.410;2023-07-30T15:49:30;25.00;74.70
5870;DHT22;2961;47.702;9.410;2023-07-30T15:51:58;24.90;78.70
5870;DHT22;2961;47.702;9.410;2023-07-30T15:54:32;24.80;76.10
5870;DHT22;2961;47.702;9.410;2023-07-30T15:56:59;24.70;75.10
5870;DHT22;2961;47.702;9.410;2023-07-30T15:59:26;24.70;75.50
5870;DHT22;2961;47.702;9.410;2023-07-30T16:01:53;24.70;75.50
5870;DHT22;2961;47.702;9.410;2023-07-30T16:04:24;24.70;76.00